Terminal Aerodrome Forecast
Issued by NWS

Home | Current Version | Previous Version | Text Only | Print | Product List | Glossary On
Versions: 1 2 3 4 5 6 7 8 9 10 11 12 13 14 15
653
FTUS46 KMTR 201743 AAA
TAFMRY
TAF AMD
KMRY 201743Z 2018/2118 20006KT P6SM -SHRA FEW017 BKN060
     FM202000 24013G24KT 6SM SHRA SCT020 OVC050
     FM210400 24013KT P6SM VCSH SCT025 BKN050
     FM211700 23011KT P6SM VCSH SCT050 BKN100=

USA.gov is the U.S. government's official web portal to all federal, state and local government web resources and services.